Lady Eman — 5IM513 — position and weather

sailwx.info

Track history (hours):
 
Tides and Currents Weather Stations Pressure Air Temp Water Temp Dewpoint Dewpoint Depression Visibility Wind Speed Wind Dir Waves Ship Positions

Lady Eman

Last reported at 2015-Aug-02 22:07 UTC. Time now 2015-Aug-04 05:22 UTC.
Position N 31°23' E 030°05'.

Length 92 m; draft 7.1 m.

Type: Cargo ship. MMSI: 677041300.

Date/timePositionNaut miles runAvg speedWind from/ knotsBaromVisibWave heightAir tempDewpointWater temp
2015-Aug-02 22:07N 31°23' E 030°05'0 0.0
2015-Aug-02 21:31N 31°23' E 030°05'0 0.0
2015-Aug-02 17:31N 31°23' E 030°05'  
2015-Jul-30 21:32N 31°23' E 030°05'0 0.0
2015-Jul-30 13:14N 31°23' E 030°05'99 2.6
2015-Jul-28 23:24N 32°35' E 031°25'15 7.2
2015-Jul-28 21:15N 32°45' E 031°38'5 7.1
2015-Jul-28 20:32N 32°49' E 031°43'6 2.9
2015-Jul-28 18:21N 32°53' E 031°48'5 4.3
2015-Jul-28 17:17N 32°56' E 031°52'3 2.7
2015-Jul-28 16:07N 32°59' E 031°54'0 0.0
2015-Jul-28 15:32N 32°59' E 031°54'2 1.7
2015-Jul-28 14:34N 33°00' E 031°55'6 5.6
2015-Jul-28 13:32N 33°04' E 032°00'6 6.3
2015-Jul-28 12:34N 33°09' E 032°05'7 6.5
2015-Jul-28 11:32N 33°13' E 032°11'6 6.3
2015-Jul-28 10:34N 33°18' E 032°16'6 6.1
2015-Jul-28 09:34N 33°22' E 032°22'6 6.2
2015-Jul-28 08:33N 33°26' E 032°27'6 6.4
2015-Jul-28 07:33N 33°30' E 032°33'7 6.5
2015-Jul-28 06:33N 33°34' E 032°39'7 6.8
2015-Jul-28 05:30N 33°39' E 032°45'15 6.8
2015-Jul-28 03:20N 33°49' E 032°59'5 6.7
2015-Jul-28 02:34N 33°52' E 033°04'7 6.7
2015-Jul-28 01:32N 33°57' E 033°10'8 6.4
2015-Jul-28 00:20N 34°02' E 033°17'19 6.6
2015-Jul-27 21:28N 34°14' E 033°34'6 6.7
2015-Jul-27 20:33N 34°18' E 033°40'26 6.1
2015-Jul-27 16:20N 34°36' E 034°01'5 6.1
2015-Jul-27 15:34N 34°40' E 034°04'  
Track history (hours):
 
Tides and Currents Weather Stations Pressure Air Temp Water Temp Dewpoint Dewpoint Depression Visibility Wind Speed Wind Dir Waves Ship Positions

Lady Eman

Last reported at 2015-Aug-02 22:07 UTC. Time now 2015-Aug-04 05:22 UTC.
Position N 31°23' E 030°05'.

Length 92 m; draft 7.1 m.

Type: Cargo ship. MMSI: 677041300.

Date/timePositionNaut miles runAvg speedWind from/ knotsBaromVisibWave heightAir tempDewpointWater temp
2015-Aug-02 22:07N 31°23' E 030°05'0 0.0
2015-Aug-02 21:31N 31°23' E 030°05'0 0.0
2015-Aug-02 17:31N 31°23' E 030°05'  
2015-Jul-30 21:32N 31°23' E 030°05'0 0.0
2015-Jul-30 13:14N 31°23' E 030°05'99 2.6
2015-Jul-28 23:24N 32°35' E 031°25'15 7.2
2015-Jul-28 21:15N 32°45' E 031°38'5 7.1
2015-Jul-28 20:32N 32°49' E 031°43'6 2.9
2015-Jul-28 18:21N 32°53' E 031°48'5 4.3
2015-Jul-28 17:17N 32°56' E 031°52'3 2.7
2015-Jul-28 16:07N 32°59' E 031°54'0 0.0
2015-Jul-28 15:32N 32°59' E 031°54'2 1.7
2015-Jul-28 14:34N 33°00' E 031°55'6 5.6
2015-Jul-28 13:32N 33°04' E 032°00'6 6.3
2015-Jul-28 12:34N 33°09' E 032°05'7 6.5
2015-Jul-28 11:32N 33°13' E 032°11'6 6.3
2015-Jul-28 10:34N 33°18' E 032°16'6 6.1
2015-Jul-28 09:34N 33°22' E 032°22'6 6.2
2015-Jul-28 08:33N 33°26' E 032°27'6 6.4
2015-Jul-28 07:33N 33°30' E 032°33'7 6.5
2015-Jul-28 06:33N 33°34' E 032°39'7 6.8
2015-Jul-28 05:30N 33°39' E 032°45'15 6.8
2015-Jul-28 03:20N 33°49' E 032°59'5 6.7
2015-Jul-28 02:34N 33°52' E 033°04'7 6.7
2015-Jul-28 01:32N 33°57' E 033°10'8 6.4
2015-Jul-28 00:20N 34°02' E 033°17'19 6.6
2015-Jul-27 21:28N 34°14' E 033°34'6 6.7
2015-Jul-27 20:33N 34°18' E 033°40'26 6.1
2015-Jul-27 16:20N 34°36' E 034°01'5 6.1
2015-Jul-27 15:34N 34°40' E 034°04'  

Dump ship's entire track history